sensor_id;sensor_type;location;lat;lon;timestamp;P1;durP1;ratioP1;P2;durP2;ratioP2
22628;SDS011;11481;53.694;9.910;2023-03-13T00:01:52;20.00;;;3.85;;
22628;SDS011;11481;53.694;9.910;2023-03-13T00:04:19;17.73;;;4.30;;
22628;SDS011;11481;53.694;9.910;2023-03-13T00:06:45;19.10;;;4.45;;
22628;SDS011;11481;53.694;9.910;2023-03-13T00:09:13;19.92;;;3.72;;
22628;SDS011;11481;53.694;9.910;2023-03-13T00:11:42;13.48;;;4.03;;
22628;SDS011;11481;53.694;9.910;2023-03-13T00:14:10;19.17;;;3.97;;
22628;SDS011;11481;53.694;9.910;2023-03-13T00:16:38;10.57;;;3.90;;
22628;SDS011;11481;53.694;9.910;2023-03-13T00:19:05;14.43;;;3.53;;
22628;SDS011;11481;53.694;9.910;2023-03-13T00:21:33;16.70;;;3.75;;
22628;SDS011;11481;53.694;9.910;2023-03-13T00:24:02;18.85;;;3.67;;
22628;SDS011;11481;53.694;9.910;2023-03-13T00:26:29;18.73;;;3.65;;
22628;SDS011;11481;53.694;9.910;2023-03-13T00:28:56;14.88;;;3.88;;
22628;SDS011;11481;53.694;9.910;2023-03-13T00:31:27;23.42;;;3.55;;
22628;SDS011;11481;53.694;9.910;2023-03-13T00:33:57;17.50;;;4.30;;
22628;SDS011;11481;53.694;9.910;2023-03-13T00:36:29;8.40;;;3.00;;
22628;SDS011;11481;53.694;9.910;2023-03-13T00:38:58;12.68;;;3.65;;
22628;SDS011;11481;53.694;9.910;2023-03-13T00:41:29;12.30;;;3.15;;
22628;SDS011;11481;53.694;9.910;2023-03-13T00:43:57;14.88;;;2.63;;
22628;SDS011;11481;53.694;9.910;2023-03-13T00:46:25;20.40;;;3.67;;
22628;SDS011;11481;53.694;9.910;2023-03-13T00:48:53;13.45;;;2.92;;
22628;SDS011;11481;53.694;9.910;2023-03-13T00:51:20;14.40;;;2.85;;
22628;SDS011;11481;53.694;9.910;2023-03-13T00:53:49;17.42;;;3.78;;
22628;SDS011;11481;53.694;9.910;2023-03-13T00:56:16;10.73;;;2.53;;
22628;SDS011;11481;53.694;9.910;2023-03-13T00:58:44;11.07;;;3.28;;
22628;SDS011;11481;53.694;9.910;2023-03-13T01:01:20;11.50;;;3.25;;
22628;SDS011;11481;53.694;9.910;2023-03-13T01:03:51;20.02;;;3.92;;
22628;SDS011;11481;53.694;9.910;2023-03-13T01:06:21;15.13;;;3.53;;
22628;SDS011;11481;53.694;9.910;2023-03-13T01:08:50;8.10;;;3.10;;
22628;SDS011;11481;53.694;9.910;2023-03-13T01:11:38;8.05;;;2.50;;
22628;SDS011;11481;53.694;9.910;2023-03-13T01:14:06;11.70;;;3.45;;
22628;SDS011;11481;53.694;9.910;2023-03-13T01:16:35;13.68;;;3.25;;
22628;SDS011;11481;53.694;9.910;2023-03-13T01:19:04;21.30;;;3.42;;
22628;SDS011;11481;53.694;9.910;2023-03-13T01:21:32;16.52;;;4.35;;
22628;SDS011;11481;53.694;9.910;2023-03-13T01:24:00;16.85;;;3.72;;
22628;SDS011;11481;53.694;9.910;2023-03-13T01:26:27;17.25;;;3.53;;
22628;SDS011;11481;53.694;9.910;2023-03-13T01:28:54;20.13;;;4.18;;
22628;SDS011;11481;53.694;9.910;2023-03-13T01:31:26;18.10;;;3.75;;
22628;SDS011;11481;53.694;9.910;2023-03-13T01:33:58;16.98;;;3.63;;
22628;SDS011;11481;53.694;9.910;2023-03-13T01:36:26;11.60;;;3.60;;
22628;SDS011;11481;53.694;9.910;2023-03-13T01:38:55;14.13;;;3.30;;
22628;SDS011;11481;53.694;9.910;2023-03-13T01:41:23;18.75;;;3.90;;
22628;SDS011;11481;53.694;9.910;2023-03-13T01:43:52;8.38;;;2.63;;
22628;SDS011;11481;53.694;9.910;2023-03-13T01:46:21;17.10;;;3.55;;
22628;SDS011;11481;53.694;9.910;2023-03-13T01:48:51;10.65;;;2.92;;
22628;SDS011;11481;53.694;9.910;2023-03-13T01:51:36;12.20;;;3.88;;
22628;SDS011;11481;53.694;9.910;2023-03-13T01:54:08;14.65;;;3.03;;
22628;SDS011;11481;53.694;9.910;2023-03-13T01:59:14;14.57;;;3.47;;
22628;SDS011;11481;53.694;9.910;2023-03-13T02:01:45;16.83;;;3.17;;
22628;SDS011;11481;53.694;9.910;2023-03-13T02:04:14;15.55;;;3.53;;
22628;SDS011;11481;53.694;9.910;2023-03-13T02:06:42;10.48;;;3.28;;
22628;SDS011;11481;53.694;9.910;2023-03-13T02:09:13;11.38;;;3.88;;
22628;SDS011;11481;53.694;9.910;2023-03-13T02:14:32;24.13;;;4.32;;
22628;SDS011;11481;53.694;9.910;2023-03-13T02:17:02;19.65;;;3.58;;
22628;SDS011;11481;53.694;9.910;2023-03-13T02:19:46;15.93;;;3.55;;
22628;SDS011;11481;53.694;9.910;2023-03-13T02:27:50;16.70;;;3.25;;
22628;SDS011;11481;53.694;9.910;2023-03-13T02:30:20;11.52;;;3.05;;
22628;SDS011;11481;53.694;9.910;2023-03-13T02:32:47;12.80;;;2.75;;
22628;SDS011;11481;53.694;9.910;2023-03-13T02:35:17;16.17;;;3.40;;
22628;SDS011;11481;53.694;9.910;2023-03-13T02:40:45;19.58;;;3.60;;
22628;SDS011;11481;53.694;9.910;2023-03-13T02:43:19;19.55;;;3.10;;
22628;SDS011;11481;53.694;9.910;2023-03-13T02:46:01;18.17;;;4.13;;
22628;SDS011;11481;53.694;9.910;2023-03-13T02:48:44;22.08;;;4.63;;
22628;SDS011;11481;53.694;9.910;2023-03-13T02:54:03;10.88;;;2.80;;
22628;SDS011;11481;53.694;9.910;2023-03-13T02:56:36;14.35;;;3.25;;
22628;SDS011;11481;53.694;9.910;2023-03-13T02:59:05;21.63;;;2.78;;
22628;SDS011;11481;53.694;9.910;2023-03-13T03:01:32;14.48;;;3.25;;
22628;SDS011;11481;53.694;9.910;2023-03-13T03:03:59;16.33;;;3.03;;
22628;SDS011;11481;53.694;9.910;2023-03-13T03:06:26;15.82;;;3.38;;
22628;SDS011;11481;53.694;9.910;2023-03-13T03:08:53;14.18;;;3.70;;
22628;SDS011;11481;53.694;9.910;2023-03-13T03:11:19;16.13;;;2.58;;
22628;SDS011;11481;53.694;9.910;2023-03-13T03:13:46;10.02;;;2.90;;
22628;SDS011;11481;53.694;9.910;2023-03-13T03:16:13;14.23;;;3.10;;
22628;SDS011;11481;53.694;9.910;2023-03-13T03:18:44;15.80;;;3.05;;
22628;SDS011;11481;53.694;9.910;2023-03-13T03:21:11;11.75;;;2.83;;
22628;SDS011;11481;53.694;9.910;2023-03-13T03:23:38;14.43;;;3.17;;
22628;SDS011;11481;53.694;9.910;2023-03-13T03:26:05;13.10;;;3.08;;
22628;SDS011;11481;53.694;9.910;2023-03-13T03:28:32;11.82;;;3.08;;
22628;SDS011;11481;53.694;9.910;2023-03-13T03:31:02;13.98;;;2.53;;
22628;SDS011;11481;53.694;9.910;2023-03-13T03:33:34;15.93;;;2.92;;
22628;SDS011;11481;53.694;9.910;2023-03-13T03:36:01;13.95;;;4.10;;
22628;SDS011;11481;53.694;9.910;2023-03-13T03:38:30;6.43;;;2.30;;
22628;SDS011;11481;53.694;9.910;2023-03-13T03:40:57;15.02;;;2.80;;
22628;SDS011;11481;53.694;9.910;2023-03-13T03:43:24;11.68;;;2.65;;
22628;SDS011;11481;53.694;9.910;2023-03-13T03:45:50;12.45;;;4.03;;
22628;SDS011;11481;53.694;9.910;2023-03-13T03:48:17;13.70;;;3.80;;
22628;SDS011;11481;53.694;9.910;2023-03-13T03:50:44;13.45;;;2.67;;
22628;SDS011;11481;53.694;9.910;2023-03-13T03:53:11;9.25;;;2.30;;
22628;SDS011;11481;53.694;9.910;2023-03-13T03:55:37;14.75;;;2.63;;
22628;SDS011;11481;53.694;9.910;2023-03-13T03:58:04;16.92;;;2.90;;
22628;SDS011;11481;53.694;9.910;2023-03-13T04:00:31;16.40;;;3.72;;
22628;SDS011;11481;53.694;9.910;2023-03-13T04:02:58;8.05;;;2.50;;
22628;SDS011;11481;53.694;9.910;2023-03-13T04:05:24;16.60;;;1.83;;
22628;SDS011;11481;53.694;9.910;2023-03-13T04:07:51;16.48;;;2.83;;
22628;SDS011;11481;53.694;9.910;2023-03-13T04:10:18;13.40;;;2.25;;
22628;SDS011;11481;53.694;9.910;2023-03-13T04:12:45;15.13;;;3.33;;
22628;SDS011;11481;53.694;9.910;2023-03-13T04:15:12;13.50;;;3.25;;
22628;SDS011;11481;53.694;9.910;2023-03-13T04:17:39;11.70;;;1.80;;
22628;SDS011;11481;53.694;9.910;2023-03-13T04:20:05;15.05;;;3.13;;
22628;SDS011;11481;53.694;9.910;2023-03-13T04:22:33;20.88;;;2.92;;
22628;SDS011;11481;53.694;9.910;2023-03-13T04:25:00;11.00;;;2.08;;
22628;SDS011;11481;53.694;9.910;2023-03-13T04:27:26;12.70;;;2.65;;
22628;SDS011;11481;53.694;9.910;2023-03-13T04:29:53;11.63;;;2.75;;
22628;SDS011;11481;53.694;9.910;2023-03-13T04:32:20;9.82;;;2.95;;
22628;SDS011;11481;53.694;9.910;2023-03-13T04:34:46;15.02;;;2.67;;
22628;SDS011;11481;53.694;9.910;2023-03-13T04:37:13;9.50;;;2.95;;
22628;SDS011;11481;53.694;9.910;2023-03-13T04:39:40;22.58;;;2.58;;
22628;SDS011;11481;53.694;9.910;2023-03-13T04:42:08;13.05;;;2.15;;
22628;SDS011;11481;53.694;9.910;2023-03-13T04:44:35;10.93;;;2.67;;
22628;SDS011;11481;53.694;9.910;2023-03-13T04:47:03;19.15;;;3.25;;
22628;SDS011;11481;53.694;9.910;2023-03-13T04:49:30;14.88;;;3.08;;
22628;SDS011;11481;53.694;9.910;2023-03-13T04:51:56;14.07;;;2.67;;
22628;SDS011;11481;53.694;9.910;2023-03-13T04:54:23;18.10;;;2.78;;
22628;SDS011;11481;53.694;9.910;2023-03-13T04:56:50;21.17;;;2.65;;
22628;SDS011;11481;53.694;9.910;2023-03-13T04:59:17;9.43;;;2.20;;
22628;SDS011;11481;53.694;9.910;2023-03-13T05:01:43;7.82;;;2.42;;
22628;SDS011;11481;53.694;9.910;2023-03-13T05:04:11;13.38;;;2.78;;
22628;SDS011;11481;53.694;9.910;2023-03-13T05:06:38;17.50;;;4.05;;
22628;SDS011;11481;53.694;9.910;2023-03-13T05:09:04;12.80;;;3.08;;
22628;SDS011;11481;53.694;9.910;2023-03-13T05:11:34;8.07;;;1.88;;
22628;SDS011;11481;53.694;9.910;2023-03-13T05:14:00;10.85;;;2.55;;
22628;SDS011;11481;53.694;9.910;2023-03-13T05:16:27;16.38;;;4.13;;
22628;SDS011;11481;53.694;9.910;2023-03-13T05:18:54;16.25;;;2.88;;
22628;SDS011;11481;53.694;9.910;2023-03-13T05:21:21;6.47;;;2.20;;
22628;SDS011;11481;53.694;9.910;2023-03-13T05:23:47;7.70;;;2.22;;
22628;SDS011;11481;53.694;9.910;2023-03-13T05:26:14;11.23;;;2.20;;
22628;SDS011;11481;53.694;9.910;2023-03-13T05:28:41;9.52;;;2.65;;
22628;SDS011;11481;53.694;9.910;2023-03-13T05:31:08;8.77;;;1.88;;
22628;SDS011;11481;53.694;9.910;2023-03-13T05:33:34;3.40;;;1.75;;
22628;SDS011;11481;53.694;9.910;2023-03-13T05:36:01;10.68;;;2.55;;
22628;SDS011;11481;53.694;9.910;2023-03-13T05:38:28;8.93;;;2.15;;
22628;SDS011;11481;53.694;9.910;2023-03-13T05:40:55;8.77;;;1.63;;
22628;SDS011;11481;53.694;9.910;2023-03-13T05:43:22;5.80;;;1.80;;
22628;SDS011;11481;53.694;9.910;2023-03-13T05:45:49;4.47;;;1.75;;
22628;SDS011;11481;53.694;9.910;2023-03-13T05:48:15;5.70;;;1.70;;
22628;SDS011;11481;53.694;9.910;2023-03-13T05:50:42;12.55;;;2.13;;
22628;SDS011;11481;53.694;9.910;2023-03-13T05:53:09;4.97;;;1.65;;
22628;SDS011;11481;53.694;9.910;2023-03-13T05:55:38;6.90;;;1.50;;
22628;SDS011;11481;53.694;9.910;2023-03-13T05:58:04;6.65;;;1.38;;
22628;SDS011;11481;53.694;9.910;2023-03-13T06:00:31;1.67;;;0.75;;
22628;SDS011;11481;53.694;9.910;2023-03-13T06:02:57;5.93;;;1.27;;
22628;SDS011;11481;53.694;9.910;2023-03-13T06:05:24;2.53;;;1.33;;
22628;SDS011;11481;53.694;9.910;2023-03-13T06:07:51;4.68;;;1.23;;
22628;SDS011;11481;53.694;9.910;2023-03-13T06:10:18;5.38;;;1.17;;
22628;SDS011;11481;53.694;9.910;2023-03-13T06:12:50;2.22;;;1.08;;
22628;SDS011;11481;53.694;9.910;2023-03-13T06:15:19;9.52;;;1.15;;
22628;SDS011;11481;53.694;9.910;2023-03-13T06:17:45;4.22;;;1.38;;
22628;SDS011;11481;53.694;9.910;2023-03-13T06:20:12;5.38;;;1.20;;
22628;SDS011;11481;53.694;9.910;2023-03-13T06:22:40;2.92;;;1.05;;
22628;SDS011;11481;53.694;9.910;2023-03-13T06:25:07;3.42;;;1.23;;
22628;SDS011;11481;53.694;9.910;2023-03-13T06:27:34;4.05;;;1.20;;
22628;SDS011;11481;53.694;9.910;2023-03-13T06:30:01;4.35;;;1.05;;
22628;SDS011;11481;53.694;9.910;2023-03-13T06:32:28;4.22;;;1.10;;
22628;SDS011;11481;53.694;9.910;2023-03-13T06:34:55;1.15;;;0.75;;
22628;SDS011;11481;53.694;9.910;2023-03-13T06:37:22;4.60;;;1.00;;
22628;SDS011;11481;53.694;9.910;2023-03-13T06:39:49;1.77;;;0.60;;
22628;SDS011;11481;53.694;9.910;2023-03-13T06:42:17;3.00;;;0.90;;
22628;SDS011;11481;53.694;9.910;2023-03-13T06:44:45;2.85;;;0.75;;
22628;SDS011;11481;53.694;9.910;2023-03-13T06:47:11;1.55;;;0.82;;
22628;SDS011;11481;53.694;9.910;2023-03-13T06:49:40;4.82;;;1.25;;
22628;SDS011;11481;53.694;9.910;2023-03-13T06:52:07;3.55;;;1.00;;
22628;SDS011;11481;53.694;9.910;2023-03-13T06:54:36;2.22;;;1.08;;
22628;SDS011;11481;53.694;9.910;2023-03-13T06:57:05;4.35;;;1.05;;
22628;SDS011;11481;53.694;9.910;2023-03-13T06:59:35;1.95;;;0.95;;
22628;SDS011;11481;53.694;9.910;2023-03-13T07:02:02;3.90;;;0.95;;
22628;SDS011;11481;53.694;9.910;2023-03-13T07:04:29;1.60;;;0.77;;
22628;SDS011;11481;53.694;9.910;2023-03-13T07:06:57;3.88;;;1.35;;
22628;SDS011;11481;53.694;9.910;2023-03-13T07:09:24;2.03;;;1.05;;
22628;SDS011;11481;53.694;9.910;2023-03-13T07:11:53;4.30;;;0.90;;
22628;SDS011;11481;53.694;9.910;2023-03-13T07:14:20;2.47;;;0.77;;
22628;SDS011;11481;53.694;9.910;2023-03-13T07:16:47;2.88;;;0.98;;
22628;SDS011;11481;53.694;9.910;2023-03-13T07:19:13;4.10;;;0.93;;
22628;SDS011;11481;53.694;9.910;2023-03-13T07:21:41;4.78;;;1.08;;
22628;SDS011;11481;53.694;9.910;2023-03-13T07:24:08;2.20;;;1.10;;
22628;SDS011;11481;53.694;9.910;2023-03-13T07:26:35;2.95;;;1.00;;
22628;SDS011;11481;53.694;9.910;2023-03-13T07:29:02;5.97;;;1.50;;
22628;SDS011;11481;53.694;9.910;2023-03-13T07:31:31;4.70;;;1.17;;
22628;SDS011;11481;53.694;9.910;2023-03-13T07:34:02;3.55;;;1.40;;
22628;SDS011;11481;53.694;9.910;2023-03-13T07:36:28;5.07;;;1.23;;
22628;SDS011;11481;53.694;9.910;2023-03-13T07:38:56;2.17;;;1.10;;
22628;SDS011;11481;53.694;9.910;2023-03-13T07:41:23;2.60;;;1.15;;
22628;SDS011;11481;53.694;9.910;2023-03-13T07:43:52;2.97;;;1.13;;
22628;SDS011;11481;53.694;9.910;2023-03-13T07:46:18;3.08;;;1.27;;
22628;SDS011;11481;53.694;9.910;2023-03-13T07:48:47;2.20;;;1.38;;
22628;SDS011;11481;53.694;9.910;2023-03-13T07:51:15;3.47;;;1.25;;
22628;SDS011;11481;53.694;9.910;2023-03-13T07:53:48;5.78;;;1.48;;
22628;SDS011;11481;53.694;9.910;2023-03-13T07:56:16;4.03;;;1.65;;
22628;SDS011;11481;53.694;9.910;2023-03-13T07:58:44;2.88;;;1.48;;
22628;SDS011;11481;53.694;9.910;2023-03-13T08:03:42;6.93;;;1.75;;
22628;SDS011;11481;53.694;9.910;2023-03-13T08:06:14;6.85;;;1.42;;
22628;SDS011;11481;53.694;9.910;2023-03-13T08:08:42;5.07;;;1.80;;
22628;SDS011;11481;53.694;9.910;2023-03-13T08:11:13;5.85;;;2.05;;
22628;SDS011;11481;53.694;9.910;2023-03-13T08:13:41;5.10;;;1.80;;
22628;SDS011;11481;53.694;9.910;2023-03-13T08:16:12;6.32;;;1.98;;
22628;SDS011;11481;53.694;9.910;2023-03-13T08:18:44;5.15;;;1.90;;
22628;SDS011;11481;53.694;9.910;2023-03-13T08:21:15;5.38;;;1.67;;
22628;SDS011;11481;53.694;9.910;2023-03-13T08:23:44;6.53;;;2.28;;
22628;SDS011;11481;53.694;9.910;2023-03-13T08:28:42;5.22;;;2.42;;
22628;SDS011;11481;53.694;9.910;2023-03-13T08:31:10;6.68;;;2.40;;
22628;SDS011;11481;53.694;9.910;2023-03-13T08:33:41;7.10;;;2.70;;
22628;SDS011;11481;53.694;9.910;2023-03-13T08:36:15;5.43;;;2.25;;
22628;SDS011;11481;53.694;9.910;2023-03-13T08:38:44;6.07;;;2.55;;
22628;SDS011;11481;53.694;9.910;2023-03-13T08:41:13;8.45;;;2.60;;
22628;SDS011;11481;53.694;9.910;2023-03-13T08:43:41;5.53;;;2.72;;
22628;SDS011;11481;53.694;9.910;2023-03-13T08:46:08;5.15;;;2.30;;
22628;SDS011;11481;53.694;9.910;2023-03-13T08:48:35;7.82;;;3.33;;
22628;SDS011;11481;53.694;9.910;2023-03-13T08:51:02;6.60;;;2.65;;
22628;SDS011;11481;53.694;9.910;2023-03-13T08:53:31;5.50;;;2.63;;
22628;SDS011;11481;53.694;9.910;2023-03-13T08:55:59;8.75;;;3.53;;
22628;SDS011;11481;53.694;9.910;2023-03-13T08:58:26;8.40;;;3.33;;
22628;SDS011;11481;53.694;9.910;2023-03-13T09:00:53;10.18;;;3.22;;
22628;SDS011;11481;53.694;9.910;2023-03-13T09:03:23;7.03;;;2.83;;
22628;SDS011;11481;53.694;9.910;2023-03-13T09:05:50;7.10;;;3.05;;
22628;SDS011;11481;53.694;9.910;2023-03-13T09:08:21;7.88;;;3.08;;
22628;SDS011;11481;53.694;9.910;2023-03-13T09:10:53;8.15;;;3.53;;
22628;SDS011;11481;53.694;9.910;2023-03-13T09:13:22;8.77;;;2.63;;
22628;SDS011;11481;53.694;9.910;2023-03-13T09:16:00;7.53;;;3.60;;
22628;SDS011;11481;53.694;9.910;2023-03-13T09:18:31;10.48;;;3.30;;
22628;SDS011;11481;53.694;9.910;2023-03-13T09:20:59;7.90;;;3.15;;
22628;SDS011;11481;53.694;9.910;2023-03-13T09:23:26;6.88;;;2.92;;
22628;SDS011;11481;53.694;9.910;2023-03-13T09:25:54;9.13;;;3.58;;
22628;SDS011;11481;53.694;9.910;2023-03-13T09:28:22;9.18;;;3.60;;
22628;SDS011;11481;53.694;9.910;2023-03-13T09:30:50;8.50;;;3.92;;
22628;SDS011;11481;53.694;9.910;2023-03-13T09:33:19;10.55;;;4.30;;
22628;SDS011;11481;53.694;9.910;2023-03-13T09:35:49;10.77;;;4.32;;
22628;SDS011;11481;53.694;9.910;2023-03-13T09:38:19;11.55;;;4.53;;
22628;SDS011;11481;53.694;9.910;2023-03-13T09:40:48;9.57;;;4.40;;
22628;SDS011;11481;53.694;9.910;2023-03-13T09:43:35;12.77;;;4.10;;
22628;SDS011;11481;53.694;9.910;2023-03-13T09:46:23;8.00;;;3.63;;
22628;SDS011;11481;53.694;9.910;2023-03-13T09:49:04;7.93;;;3.38;;
22628;SDS011;11481;53.694;9.910;2023-03-13T09:51:49;9.60;;;3.25;;
22628;SDS011;11481;53.694;9.910;2023-03-13T09:54:49;6.40;;;3.05;;
22628;SDS011;11481;53.694;9.910;2023-03-13T10:02:43;10.23;;;3.78;;
22628;SDS011;11481;53.694;9.910;2023-03-13T10:05:18;10.30;;;4.15;;
22628;SDS011;11481;53.694;9.910;2023-03-13T10:07:47;8.60;;;3.58;;
22628;SDS011;11481;53.694;9.910;2023-03-13T10:10:15;8.00;;;3.80;;
22628;SDS011;11481;53.694;9.910;2023-03-13T10:12:47;10.52;;;4.80;;
22628;SDS011;11481;53.694;9.910;2023-03-13T10:17:59;9.02;;;3.88;;
22628;SDS011;11481;53.694;9.910;2023-03-13T10:20:39;10.57;;;3.67;;
22628;SDS011;11481;53.694;9.910;2023-03-13T10:26:02;8.18;;;3.35;;
22628;SDS011;11481;53.694;9.910;2023-03-13T10:28:29;8.95;;;4.10;;
22628;SDS011;11481;53.694;9.910;2023-03-13T10:31:21;9.23;;;4.40;;
22628;SDS011;11481;53.694;9.910;2023-03-13T10:33:47;7.18;;;3.45;;
22628;SDS011;11481;53.694;9.910;2023-03-13T10:36:14;9.98;;;3.90;;
22628;SDS011;11481;53.694;9.910;2023-03-13T10:38:45;9.75;;;4.07;;
22628;SDS011;11481;53.694;9.910;2023-03-13T10:41:18;6.85;;;3.38;;
22628;SDS011;11481;53.694;9.910;2023-03-13T10:43:55;8.70;;;3.58;;
22628;SDS011;11481;53.694;9.910;2023-03-13T10:46:29;7.80;;;3.30;;
22628;SDS011;11481;53.694;9.910;2023-03-13T10:49:02;9.70;;;3.80;;
22628;SDS011;11481;53.694;9.910;2023-03-13T10:51:37;7.55;;;3.40;;
22628;SDS011;11481;53.694;9.910;2023-03-13T10:54:18;7.70;;;3.70;;
22628;SDS011;11481;53.694;9.910;2023-03-13T10:56:51;7.75;;;3.45;;
22628;SDS011;11481;53.694;9.910;2023-03-13T10:59:32;6.93;;;3.28;;
22628;SDS011;11481;53.694;9.910;2023-03-13T11:02:12;6.93;;;3.35;;
22628;SDS011;11481;53.694;9.910;2023-03-13T11:04:54;4.18;;;2.35;;
22628;SDS011;11481;53.694;9.910;2023-03-13T11:07:28;6.43;;;2.95;;
22628;SDS011;11481;53.694;9.910;2023-03-13T11:12:53;4.63;;;2.30;;
22628;SDS011;11481;53.694;9.910;2023-03-13T11:20:44;6.97;;;2.15;;
22628;SDS011;11481;53.694;9.910;2023-03-13T11:25:42;4.20;;;1.85;;
22628;SDS011;11481;53.694;9.910;2023-03-13T11:28:27;4.07;;;1.65;;
22628;SDS011;11481;53.694;9.910;2023-03-13T11:31:36;3.55;;;1.50;;
22628;SDS011;11481;53.694;9.910;2023-03-13T11:37:07;5.57;;;1.42;;
22628;SDS011;11481;53.694;9.910;2023-03-13T11:39:42;3.08;;;1.63;;
22628;SDS011;11481;53.694;9.910;2023-03-13T11:56:38;2.58;;;1.23;;
22628;SDS011;11481;53.694;9.910;2023-03-13T11:59:15;4.53;;;1.30;;
22628;SDS011;11481;53.694;9.910;2023-03-13T12:01:53;1.60;;;1.00;;
22628;SDS011;11481;53.694;9.910;2023-03-13T12:04:30;3.15;;;0.98;;
22628;SDS011;11481;53.694;9.910;2023-03-13T12:07:06;4.72;;;1.45;;
22628;SDS011;11481;53.694;9.910;2023-03-13T12:09:40;3.63;;;1.27;;
22628;SDS011;11481;53.694;9.910;2023-03-13T12:14:43;2.80;;;1.05;;
22628;SDS011;11481;53.694;9.910;2023-03-13T12:20:04;4.93;;;1.13;;
22628;SDS011;11481;53.694;9.910;2023-03-13T12:22:35;3.28;;;1.48;;
22628;SDS011;11481;53.694;9.910;2023-03-13T12:25:12;3.47;;;1.10;;
22628;SDS011;11481;53.694;9.910;2023-03-13T12:27:48;2.28;;;0.93;;
22628;SDS011;11481;53.694;9.910;2023-03-13T12:30:36;2.42;;;1.40;;
22628;SDS011;11481;53.694;9.910;2023-03-13T12:33:11;3.28;;;0.93;;
22628;SDS011;11481;53.694;9.910;2023-03-13T12:36:00;2.25;;;1.13;;
22628;SDS011;11481;53.694;9.910;2023-03-13T12:41:41;2.25;;;1.10;;
22628;SDS011;11481;53.694;9.910;2023-03-13T12:44:27;1.80;;;0.95;;
22628;SDS011;11481;53.694;9.910;2023-03-13T12:52:15;2.60;;;0.98;;
22628;SDS011;11481;53.694;9.910;2023-03-13T13:00:28;2.92;;;1.17;;
22628;SDS011;11481;53.694;9.910;2023-03-13T13:03:45;3.30;;;1.00;;
22628;SDS011;11481;53.694;9.910;2023-03-13T13:06:27;4.95;;;1.17;;
22628;SDS011;11481;53.694;9.910;2023-03-13T13:08:49;2.38;;;0.77;;
22628;SDS011;11481;53.694;9.910;2023-03-13T13:16:51;5.15;;;1.38;;
22628;SDS011;11481;53.694;9.910;2023-03-13T13:32:43;4.43;;;1.23;;
22628;SDS011;11481;53.694;9.910;2023-03-13T13:35:26;2.65;;;0.85;;
22628;SDS011;11481;53.694;9.910;2023-03-13T13:43:41;1.50;;;0.70;;
22628;SDS011;11481;53.694;9.910;2023-03-13T13:51:34;2.80;;;1.00;;
22628;SDS011;11481;53.694;9.910;2023-03-13T13:54:04;2.15;;;1.17;;
22628;SDS011;11481;53.694;9.910;2023-03-13T13:57:09;4.63;;;1.20;;
22628;SDS011;11481;53.694;9.910;2023-03-13T14:02:50;1.70;;;0.90;;
22628;SDS011;11481;53.694;9.910;2023-03-13T14:05:23;1.83;;;0.98;;
22628;SDS011;11481;53.694;9.910;2023-03-13T14:08:16;2.00;;;0.88;;
22628;SDS011;11481;53.694;9.910;2023-03-13T14:10:50;3.90;;;1.10;;
22628;SDS011;11481;53.694;9.910;2023-03-13T14:13:28;3.88;;;1.02;;
22628;SDS011;11481;53.694;9.910;2023-03-13T14:15:57;1.52;;;0.85;;
22628;SDS011;11481;53.694;9.910;2023-03-13T14:18:50;2.20;;;0.88;;
22628;SDS011;11481;53.694;9.910;2023-03-13T14:21:21;2.20;;;1.13;;
22628;SDS011;11481;53.694;9.910;2023-03-13T14:23:49;4.00;;;1.08;;
22628;SDS011;11481;53.694;9.910;2023-03-13T14:26:17;1.67;;;0.80;;
22628;SDS011;11481;53.694;9.910;2023-03-13T14:28:46;3.75;;;0.77;;
22628;SDS011;11481;53.694;9.910;2023-03-13T14:34:04;4.72;;;1.30;;
22628;SDS011;11481;53.694;9.910;2023-03-13T14:39:55;2.10;;;1.08;;
22628;SDS011;11481;53.694;9.910;2023-03-13T14:42:38;3.30;;;0.93;;
22628;SDS011;11481;53.694;9.910;2023-03-13T14:45:35;5.28;;;1.08;;
22628;SDS011;11481;53.694;9.910;2023-03-13T14:48:03;5.68;;;0.90;;
22628;SDS011;11481;53.694;9.910;2023-03-13T14:50:42;2.53;;;0.90;;
22628;SDS011;11481;53.694;9.910;2023-03-13T14:53:13;2.65;;;0.95;;
22628;SDS011;11481;53.694;9.910;2023-03-13T14:55:44;4.53;;;1.40;;
22628;SDS011;11481;53.694;9.910;2023-03-13T15:00:45;1.88;;;0.70;;
22628;SDS011;11481;53.694;9.910;2023-03-13T15:05:42;3.33;;;1.38;;
22628;SDS011;11481;53.694;9.910;2023-03-13T15:08:17;2.25;;;0.95;;
22628;SDS011;11481;53.694;9.910;2023-03-13T15:10:46;1.98;;;0.80;;
22628;SDS011;11481;53.694;9.910;2023-03-13T15:16:16;5.35;;;1.10;;
22628;SDS011;11481;53.694;9.910;2023-03-13T15:18:45;3.70;;;1.02;;
22628;SDS011;11481;53.694;9.910;2023-03-13T15:23:39;3.65;;;1.15;;
22628;SDS011;11481;53.694;9.910;2023-03-13T15:26:08;1.50;;;0.90;;
22628;SDS011;11481;53.694;9.910;2023-03-13T15:28:37;1.80;;;0.93;;
22628;SDS011;11481;53.694;9.910;2023-03-13T15:31:04;2.33;;;0.95;;
22628;SDS011;11481;53.694;9.910;2023-03-13T15:33:34;1.55;;;0.75;;
22628;SDS011;11481;53.694;9.910;2023-03-13T15:36:03;3.33;;;1.38;;
22628;SDS011;11481;53.694;9.910;2023-03-13T15:38:32;1.58;;;0.98;;
22628;SDS011;11481;53.694;9.910;2023-03-13T15:40:59;2.67;;;1.20;;
22628;SDS011;11481;53.694;9.910;2023-03-13T15:43:25;2.30;;;0.95;;
22628;SDS011;11481;53.694;9.910;2023-03-13T15:45:53;2.08;;;1.00;;
22628;SDS011;11481;53.694;9.910;2023-03-13T15:48:20;3.13;;;1.10;;
22628;SDS011;11481;53.694;9.910;2023-03-13T15:50:54;2.40;;;0.70;;
22628;SDS011;11481;53.694;9.910;2023-03-13T15:53:24;4.03;;;0.90;;
22628;SDS011;11481;53.694;9.910;2023-03-13T15:55:58;4.10;;;1.10;;
22628;SDS011;11481;53.694;9.910;2023-03-13T15:58:26;3.53;;;0.98;;
22628;SDS011;11481;53.694;9.910;2023-03-13T16:00:55;1.77;;;0.90;;
22628;SDS011;11481;53.694;9.910;2023-03-13T16:03:26;2.25;;;0.88;;
22628;SDS011;11481;53.694;9.910;2023-03-13T16:05:54;1.77;;;0.73;;
22628;SDS011;11481;53.694;9.910;2023-03-13T16:08:23;2.78;;;0.70;;
22628;SDS011;11481;53.694;9.910;2023-03-13T16:11:04;3.78;;;0.65;;
22628;SDS011;11481;53.694;9.910;2023-03-13T16:13:31;5.07;;;0.93;;
22628;SDS011;11481;53.694;9.910;2023-03-13T16:15:58;1.33;;;0.80;;
22628;SDS011;11481;53.694;9.910;2023-03-13T16:18:27;0.88;;;0.65;;
22628;SDS011;11481;53.694;9.910;2023-03-13T16:20:54;3.83;;;0.77;;
22628;SDS011;11481;53.694;9.910;2023-03-13T16:23:21;2.13;;;1.05;;
22628;SDS011;11481;53.694;9.910;2023-03-13T16:25:49;2.30;;;0.70;;
22628;SDS011;11481;53.694;9.910;2023-03-13T16:28:16;2.80;;;0.80;;
22628;SDS011;11481;53.694;9.910;2023-03-13T16:30:43;1.83;;;0.52;;
22628;SDS011;11481;53.694;9.910;2023-03-13T16:33:12;2.58;;;0.70;;
22628;SDS011;11481;53.694;9.910;2023-03-13T16:35:39;4.47;;;1.00;;
22628;SDS011;11481;53.694;9.910;2023-03-13T16:38:06;2.03;;;1.00;;
22628;SDS011;11481;53.694;9.910;2023-03-13T16:40:36;2.00;;;0.90;;
22628;SDS011;11481;53.694;9.910;2023-03-13T16:43:03;4.38;;;0.85;;
22628;SDS011;11481;53.694;9.910;2023-03-13T16:45:29;1.88;;;0.70;;
22628;SDS011;11481;53.694;9.910;2023-03-13T16:47:56;2.65;;;0.60;;
22628;SDS011;11481;53.694;9.910;2023-03-13T16:50:33;4.72;;;0.98;;
22628;SDS011;11481;53.694;9.910;2023-03-13T16:53:01;2.97;;;0.95;;
22628;SDS011;11481;53.694;9.910;2023-03-13T16:55:29;1.05;;;0.50;;
22628;SDS011;11481;53.694;9.910;2023-03-13T16:58:02;2.55;;;0.70;;
22628;SDS011;11481;53.694;9.910;2023-03-13T17:00:29;6.28;;;1.17;;
22628;SDS011;11481;53.694;9.910;2023-03-13T17:02:59;3.72;;;0.50;;
22628;SDS011;11481;53.694;9.910;2023-03-13T17:05:26;1.75;;;0.60;;
22628;SDS011;11481;53.694;9.910;2023-03-13T17:07:53;1.90;;;0.55;;
22628;SDS011;11481;53.694;9.910;2023-03-13T17:10:26;1.88;;;0.63;;
22628;SDS011;11481;53.694;9.910;2023-03-13T17:13:02;2.38;;;0.73;;